sensor_id;sensor_type;location;lat;lon;timestamp;P1;durP1;ratioP1;P2;durP2;ratioP2
23270;SDS011;11804;51.118;17.058;2022-10-17T00:00:57;42.50;;;31.53;;
23270;SDS011;11804;51.118;17.058;2022-10-17T00:03:24;45.40;;;32.90;;
23270;SDS011;11804;51.118;17.058;2022-10-17T00:05:52;43.90;;;31.70;;
23270;SDS011;11804;51.118;17.058;2022-10-17T00:08:25;41.23;;;30.57;;
23270;SDS011;11804;51.118;17.058;2022-10-17T00:10:58;44.73;;;31.60;;
23270;SDS011;11804;51.118;17.058;2022-10-17T00:13:28;41.63;;;30.57;;
23270;SDS011;11804;51.118;17.058;2022-10-17T00:15:55;42.07;;;31.03;;
23270;SDS011;11804;51.118;17.058;2022-10-17T00:18:23;41.63;;;30.97;;
23270;SDS011;11804;51.118;17.058;2022-10-17T00:20:52;43.63;;;30.73;;
23270;SDS011;11804;51.118;17.058;2022-10-17T00:23:20;48.67;;;32.37;;
23270;SDS011;11804;51.118;17.058;2022-10-17T00:25:56;42.57;;;31.50;;
23270;SDS011;11804;51.118;17.058;2022-10-17T00:28:27;42.03;;;31.13;;
23270;SDS011;11804;51.118;17.058;2022-10-17T00:30:59;41.40;;;31.03;;
23270;SDS011;11804;51.118;17.058;2022-10-17T00:33:28;42.07;;;31.57;;
23270;SDS011;11804;51.118;17.058;2022-10-17T00:36:06;46.93;;;29.97;;
23270;SDS011;11804;51.118;17.058;2022-10-17T00:38:37;41.70;;;29.87;;
23270;SDS011;11804;51.118;17.058;2022-10-17T00:41:07;41.00;;;29.93;;
23270;SDS011;11804;51.118;17.058;2022-10-17T00:43:55;39.50;;;28.80;;
23270;SDS011;11804;51.118;17.058;2022-10-17T00:46:29;42.93;;;29.57;;
23270;SDS011;11804;51.118;17.058;2022-10-17T00:48:58;39.40;;;28.20;;
23270;SDS011;11804;51.118;17.058;2022-10-17T00:54:14;40.07;;;29.67;;
23270;SDS011;11804;51.118;17.058;2022-10-17T00:56:43;37.90;;;28.43;;
23270;SDS011;11804;51.118;17.058;2022-10-17T00:59:14;40.10;;;29.90;;
23270;SDS011;11804;51.118;17.058;2022-10-17T01:01:45;42.20;;;30.50;;
23270;SDS011;11804;51.118;17.058;2022-10-17T01:04:13;42.77;;;31.00;;
23270;SDS011;11804;51.118;17.058;2022-10-17T01:06:43;42.27;;;31.60;;
23270;SDS011;11804;51.118;17.058;2022-10-17T01:09:10;42.27;;;31.30;;
23270;SDS011;11804;51.118;17.058;2022-10-17T01:15:01;40.97;;;30.73;;
23270;SDS011;11804;51.118;17.058;2022-10-17T01:23:28;44.07;;;30.47;;
23270;SDS011;11804;51.118;17.058;2022-10-17T01:26:18;42.17;;;30.43;;
23270;SDS011;11804;51.118;17.058;2022-10-17T01:29:21;44.60;;;29.33;;
23270;SDS011;11804;51.118;17.058;2022-10-17T01:34:33;45.27;;;30.50;;
23270;SDS011;11804;51.118;17.058;2022-10-17T01:37:07;38.13;;;28.53;;
23270;SDS011;11804;51.118;17.058;2022-10-17T01:39:42;42.10;;;30.40;;
23270;SDS011;11804;51.118;17.058;2022-10-17T01:45:13;46.30;;;32.70;;
23270;SDS011;11804;51.118;17.058;2022-10-17T01:47:49;47.97;;;33.47;;
23270;SDS011;11804;51.118;17.058;2022-10-17T01:50:22;46.50;;;32.97;;
23270;SDS011;11804;51.118;17.058;2022-10-17T01:52:52;43.20;;;31.57;;
23270;SDS011;11804;51.118;17.058;2022-10-17T01:55:28;44.77;;;32.17;;
23270;SDS011;11804;51.118;17.058;2022-10-17T01:58:04;44.70;;;31.97;;
23270;SDS011;11804;51.118;17.058;2022-10-17T02:00:31;46.77;;;33.47;;
23270;SDS011;11804;51.118;17.058;2022-10-17T02:03:01;47.30;;;35.20;;
23270;SDS011;11804;51.118;17.058;2022-10-17T02:05:32;52.27;;;34.83;;
23270;SDS011;11804;51.118;17.058;2022-10-17T02:08:02;47.13;;;34.37;;
23270;SDS011;11804;51.118;17.058;2022-10-17T02:21:07;50.33;;;34.00;;
23270;SDS011;11804;51.118;17.058;2022-10-17T02:23:56;51.63;;;34.53;;
23270;SDS011;11804;51.118;17.058;2022-10-17T02:26:33;46.83;;;33.83;;
23270;SDS011;11804;51.118;17.058;2022-10-17T02:29:17;47.60;;;33.40;;
23270;SDS011;11804;51.118;17.058;2022-10-17T02:31:45;48.00;;;33.57;;
23270;SDS011;11804;51.118;17.058;2022-10-17T02:34:21;44.93;;;32.13;;
23270;SDS011;11804;51.118;17.058;2022-10-17T02:36:54;40.90;;;31.07;;
23270;SDS011;11804;51.118;17.058;2022-10-17T02:39:24;46.67;;;32.50;;
23270;SDS011;11804;51.118;17.058;2022-10-17T02:41:54;48.23;;;32.07;;
23270;SDS011;11804;51.118;17.058;2022-10-17T02:44:24;45.03;;;31.60;;
23270;SDS011;11804;51.118;17.058;2022-10-17T02:47:00;44.97;;;31.00;;
23270;SDS011;11804;51.118;17.058;2022-10-17T02:49:32;43.53;;;30.60;;
23270;SDS011;11804;51.118;17.058;2022-10-17T02:52:09;39.60;;;30.70;;
23270;SDS011;11804;51.118;17.058;2022-10-17T02:59:57;42.07;;;31.93;;
23270;SDS011;11804;51.118;17.058;2022-10-17T03:02:26;42.33;;;32.10;;
23270;SDS011;11804;51.118;17.058;2022-10-17T03:04:54;42.20;;;32.03;;
23270;SDS011;11804;51.118;17.058;2022-10-17T03:07:22;42.20;;;29.70;;
23270;SDS011;11804;51.118;17.058;2022-10-17T03:09:49;48.13;;;33.23;;
23270;SDS011;11804;51.118;17.058;2022-10-17T03:12:17;51.00;;;32.70;;
23270;SDS011;11804;51.118;17.058;2022-10-17T03:14:44;47.77;;;32.50;;
23270;SDS011;11804;51.118;17.058;2022-10-17T03:17:11;46.23;;;31.73;;
23270;SDS011;11804;51.118;17.058;2022-10-17T03:19:39;44.90;;;33.17;;
23270;SDS011;11804;51.118;17.058;2022-10-17T03:22:06;48.27;;;34.23;;
23270;SDS011;11804;51.118;17.058;2022-10-17T03:24:34;51.27;;;34.33;;
23270;SDS011;11804;51.118;17.058;2022-10-17T03:27:02;51.87;;;34.20;;
23270;SDS011;11804;51.118;17.058;2022-10-17T03:29:30;49.37;;;35.70;;
23270;SDS011;11804;51.118;17.058;2022-10-17T03:31:57;47.30;;;34.57;;
23270;SDS011;11804;51.118;17.058;2022-10-17T03:34:25;48.07;;;34.23;;
23270;SDS011;11804;51.118;17.058;2022-10-17T03:36:52;47.53;;;34.00;;
23270;SDS011;11804;51.118;17.058;2022-10-17T03:39:20;47.33;;;33.17;;
23270;SDS011;11804;51.118;17.058;2022-10-17T03:41:47;52.13;;;35.27;;
23270;SDS011;11804;51.118;17.058;2022-10-17T03:44:15;50.87;;;34.30;;
23270;SDS011;11804;51.118;17.058;2022-10-17T03:46:42;50.33;;;35.60;;
23270;SDS011;11804;51.118;17.058;2022-10-17T03:49:10;54.63;;;34.27;;
23270;SDS011;11804;51.118;17.058;2022-10-17T03:51:37;50.50;;;35.53;;
23270;SDS011;11804;51.118;17.058;2022-10-17T03:54:05;53.30;;;35.77;;
23270;SDS011;11804;51.118;17.058;2022-10-17T03:56:33;51.50;;;34.27;;
23270;SDS011;11804;51.118;17.058;2022-10-17T03:59:00;51.60;;;34.13;;
23270;SDS011;11804;51.118;17.058;2022-10-17T04:01:29;51.17;;;34.27;;
23270;SDS011;11804;51.118;17.058;2022-10-17T04:03:56;53.40;;;35.60;;
23270;SDS011;11804;51.118;17.058;2022-10-17T04:06:24;52.23;;;34.77;;
23270;SDS011;11804;51.118;17.058;2022-10-17T04:08:51;50.70;;;35.03;;
23270;SDS011;11804;51.118;17.058;2022-10-17T04:11:19;57.03;;;35.33;;
23270;SDS011;11804;51.118;17.058;2022-10-17T04:13:51;54.80;;;36.37;;
23270;SDS011;11804;51.118;17.058;2022-10-17T04:16:20;53.33;;;36.17;;
23270;SDS011;11804;51.118;17.058;2022-10-17T04:18:57;54.73;;;36.60;;
23270;SDS011;11804;51.118;17.058;2022-10-17T04:21:21;51.73;;;35.93;;
23270;SDS011;11804;51.118;17.058;2022-10-17T04:23:55;49.23;;;35.57;;
23270;SDS011;11804;51.118;17.058;2022-10-17T04:26:23;56.13;;;38.13;;
23270;SDS011;11804;51.118;17.058;2022-10-17T04:28:51;58.33;;;38.50;;
23270;SDS011;11804;51.118;17.058;2022-10-17T04:31:19;54.60;;;37.67;;
23270;SDS011;11804;51.118;17.058;2022-10-17T04:33:47;59.00;;;38.00;;
23270;SDS011;11804;51.118;17.058;2022-10-17T04:36:16;54.40;;;37.03;;
23270;SDS011;11804;51.118;17.058;2022-10-17T04:38:45;58.37;;;37.73;;
23270;SDS011;11804;51.118;17.058;2022-10-17T04:41:14;57.60;;;37.17;;
23270;SDS011;11804;51.118;17.058;2022-10-17T04:43:43;54.63;;;36.27;;
23270;SDS011;11804;51.118;17.058;2022-10-17T04:46:12;54.30;;;35.33;;
23270;SDS011;11804;51.118;17.058;2022-10-17T04:48:41;57.80;;;37.60;;
23270;SDS011;11804;51.118;17.058;2022-10-17T04:51:12;51.63;;;36.00;;
23270;SDS011;11804;51.118;17.058;2022-10-17T04:53:42;62.33;;;37.53;;
23270;SDS011;11804;51.118;17.058;2022-10-17T04:56:15;60.20;;;36.97;;
23270;SDS011;11804;51.118;17.058;2022-10-17T04:58:44;57.10;;;37.23;;
23270;SDS011;11804;51.118;17.058;2022-10-17T05:01:14;53.67;;;36.23;;
23270;SDS011;11804;51.118;17.058;2022-10-17T05:03:46;55.23;;;37.37;;
23270;SDS011;11804;51.118;17.058;2022-10-17T05:06:16;57.73;;;37.07;;
23270;SDS011;11804;51.118;17.058;2022-10-17T05:08:44;58.33;;;37.17;;
23270;SDS011;11804;51.118;17.058;2022-10-17T05:11:23;58.97;;;37.53;;
23270;SDS011;11804;51.118;17.058;2022-10-17T05:13:50;56.50;;;36.80;;
23270;SDS011;11804;51.118;17.058;2022-10-17T05:16:19;49.97;;;35.23;;
23270;SDS011;11804;51.118;17.058;2022-10-17T05:18:48;50.03;;;35.23;;
23270;SDS011;11804;51.118;17.058;2022-10-17T05:21:21;51.03;;;35.03;;
23270;SDS011;11804;51.118;17.058;2022-10-17T05:23:50;52.33;;;35.17;;
23270;SDS011;11804;51.118;17.058;2022-10-17T05:26:18;49.47;;;34.93;;
23270;SDS011;11804;51.118;17.058;2022-10-17T05:28:46;46.60;;;33.13;;
23270;SDS011;11804;51.118;17.058;2022-10-17T05:31:13;47.33;;;34.27;;
23270;SDS011;11804;51.118;17.058;2022-10-17T05:33:41;52.07;;;33.73;;
23270;SDS011;11804;51.118;17.058;2022-10-17T05:36:09;50.57;;;34.00;;
23270;SDS011;11804;51.118;17.058;2022-10-17T05:38:36;49.50;;;34.43;;
23270;SDS011;11804;51.118;17.058;2022-10-17T05:41:04;51.33;;;33.00;;
23270;SDS011;11804;51.118;17.058;2022-10-17T05:43:32;50.93;;;33.30;;
23270;SDS011;11804;51.118;17.058;2022-10-17T05:46:04;53.30;;;34.53;;
23270;SDS011;11804;51.118;17.058;2022-10-17T05:48:34;50.03;;;34.17;;
23270;SDS011;11804;51.118;17.058;2022-10-17T05:51:03;56.10;;;35.37;;
23270;SDS011;11804;51.118;17.058;2022-10-17T05:53:35;49.30;;;32.53;;
23270;SDS011;11804;51.118;17.058;2022-10-17T05:56:05;50.57;;;31.93;;
23270;SDS011;11804;51.118;17.058;2022-10-17T05:58:35;47.17;;;32.97;;
23270;SDS011;11804;51.118;17.058;2022-10-17T06:01:05;51.63;;;35.40;;
23270;SDS011;11804;51.118;17.058;2022-10-17T06:03:33;55.30;;;36.00;;
23270;SDS011;11804;51.118;17.058;2022-10-17T06:06:09;50.97;;;34.60;;
23270;SDS011;11804;51.118;17.058;2022-10-17T06:08:33;56.07;;;34.93;;
23270;SDS011;11804;51.118;17.058;2022-10-17T06:11:01;52.07;;;33.50;;
23270;SDS011;11804;51.118;17.058;2022-10-17T06:13:29;53.90;;;34.27;;
23270;SDS011;11804;51.118;17.058;2022-10-17T06:15:57;54.17;;;34.17;;
23270;SDS011;11804;51.118;17.058;2022-10-17T06:18:24;48.63;;;34.53;;
23270;SDS011;11804;51.118;17.058;2022-10-17T06:20:52;51.47;;;34.00;;
23270;SDS011;11804;51.118;17.058;2022-10-17T06:23:19;54.43;;;34.77;;
23270;SDS011;11804;51.118;17.058;2022-10-17T06:25:47;52.57;;;34.23;;
23270;SDS011;11804;51.118;17.058;2022-10-17T06:28:14;52.83;;;35.80;;
23270;SDS011;11804;51.118;17.058;2022-10-17T06:30:42;56.17;;;34.87;;
23270;SDS011;11804;51.118;17.058;2022-10-17T06:33:10;52.20;;;34.13;;
23270;SDS011;11804;51.118;17.058;2022-10-17T06:35:37;49.83;;;33.80;;
23270;SDS011;11804;51.118;17.058;2022-10-17T06:38:05;50.87;;;33.70;;
23270;SDS011;11804;51.118;17.058;2022-10-17T06:40:33;53.87;;;31.67;;
23270;SDS011;11804;51.118;17.058;2022-10-17T06:43:00;48.70;;;32.83;;
23270;SDS011;11804;51.118;17.058;2022-10-17T06:45:28;50.30;;;33.83;;
23270;SDS011;11804;51.118;17.058;2022-10-17T06:47:55;48.83;;;32.50;;
23270;SDS011;11804;51.118;17.058;2022-10-17T06:50:23;49.57;;;33.10;;
23270;SDS011;11804;51.118;17.058;2022-10-17T06:52:50;48.03;;;31.53;;
23270;SDS011;11804;51.118;17.058;2022-10-17T06:55:18;46.20;;;31.87;;
23270;SDS011;11804;51.118;17.058;2022-10-17T06:57:45;46.60;;;30.17;;
23270;SDS011;11804;51.118;17.058;2022-10-17T07:00:13;49.07;;;30.13;;
23270;SDS011;11804;51.118;17.058;2022-10-17T07:02:41;46.20;;;30.00;;
23270;SDS011;11804;51.118;17.058;2022-10-17T07:05:09;47.37;;;29.77;;
23270;SDS011;11804;51.118;17.058;2022-10-17T07:07:37;43.07;;;28.40;;
23270;SDS011;11804;51.118;17.058;2022-10-17T07:10:04;42.80;;;28.83;;
23270;SDS011;11804;51.118;17.058;2022-10-17T07:12:34;36.87;;;27.33;;
23270;SDS011;11804;51.118;17.058;2022-10-17T07:15:02;44.73;;;29.90;;
23270;SDS011;11804;51.118;17.058;2022-10-17T07:17:30;42.33;;;28.17;;
23270;SDS011;11804;51.118;17.058;2022-10-17T07:19:57;47.07;;;28.37;;
23270;SDS011;11804;51.118;17.058;2022-10-17T07:22:25;47.80;;;28.50;;
23270;SDS011;11804;51.118;17.058;2022-10-17T07:24:52;41.30;;;27.53;;
23270;SDS011;11804;51.118;17.058;2022-10-17T07:27:20;37.47;;;27.27;;
23270;SDS011;11804;51.118;17.058;2022-10-17T07:29:48;38.90;;;27.33;;
23270;SDS011;11804;51.118;17.058;2022-10-17T07:32:15;40.03;;;28.40;;
23270;SDS011;11804;51.118;17.058;2022-10-17T07:34:43;42.07;;;27.30;;
23270;SDS011;11804;51.118;17.058;2022-10-17T07:37:10;43.95;;;28.00;;
23270;SDS011;11804;51.118;17.058;2022-10-17T07:39:38;44.03;;;27.30;;
23270;SDS011;11804;51.118;17.058;2022-10-17T07:42:05;40.50;;;26.63;;
23270;SDS011;11804;51.118;17.058;2022-10-17T07:44:33;42.43;;;26.50;;
23270;SDS011;11804;51.118;17.058;2022-10-17T07:47:01;43.73;;;28.33;;
23270;SDS011;11804;51.118;17.058;2022-10-17T07:49:29;40.20;;;25.97;;
23270;SDS011;11804;51.118;17.058;2022-10-17T07:51:56;35.60;;;25.73;;
23270;SDS011;11804;51.118;17.058;2022-10-17T07:54:24;39.38;;;24.05;;
23270;SDS011;11804;51.118;17.058;2022-10-17T07:56:53;30.32;;;21.62;;
23270;SDS011;11804;51.118;17.058;2022-10-17T07:59:21;31.20;;;21.40;;
23270;SDS011;11804;51.118;17.058;2022-10-17T08:01:49;27.48;;;18.85;;
23270;SDS011;11804;51.118;17.058;2022-10-17T08:04:16;28.15;;;19.60;;
23270;SDS011;11804;51.118;17.058;2022-10-17T08:06:44;22.42;;;17.17;;
23270;SDS011;11804;51.118;17.058;2022-10-17T08:09:13;20.60;;;17.73;;
23270;SDS011;11804;51.118;17.058;2022-10-17T08:11:41;23.20;;;17.45;;
23270;SDS011;11804;51.118;17.058;2022-10-17T08:14:09;20.45;;;16.73;;
23270;SDS011;11804;51.118;17.058;2022-10-17T08:16:38;22.22;;;18.17;;
23270;SDS011;11804;51.118;17.058;2022-10-17T08:19:06;24.02;;;16.93;;
23270;SDS011;11804;51.118;17.058;2022-10-17T08:21:36;20.97;;;17.25;;
23270;SDS011;11804;51.118;17.058;2022-10-17T08:24:03;22.70;;;18.37;;
23270;SDS011;11804;51.118;17.058;2022-10-17T08:26:31;24.05;;;17.23;;
23270;SDS011;11804;51.118;17.058;2022-10-17T08:28:59;22.10;;;16.67;;
23270;SDS011;11804;51.118;17.058;2022-10-17T08:31:26;22.67;;;16.80;;
23270;SDS011;11804;51.118;17.058;2022-10-17T08:33:55;22.20;;;17.73;;
23270;SDS011;11804;51.118;17.058;2022-10-17T08:36:23;22.00;;;17.50;;
23270;SDS011;11804;51.118;17.058;2022-10-17T08:38:50;22.62;;;16.82;;
23270;SDS011;11804;51.118;17.058;2022-10-17T08:46:41;17.95;;;15.90;;
23270;SDS011;11804;51.118;17.058;2022-10-17T08:49:23;23.07;;;16.45;;
23270;SDS011;11804;51.118;17.058;2022-10-17T08:51:55;21.45;;;16.17;;
23270;SDS011;11804;51.118;17.058;2022-10-17T08:55:30;20.32;;;15.88;;
23270;SDS011;11804;51.118;17.058;2022-10-17T08:57:12;24.23;;;16.87;;
23270;SDS011;11804;51.118;17.058;2022-10-17T08:59:41;20.32;;;16.25;;
23270;SDS011;11804;51.118;17.058;2022-10-17T09:05:20;17.05;;;15.18;;
23270;SDS011;11804;51.118;17.058;2022-10-17T09:10:46;19.10;;;15.43;;
23270;SDS011;11804;51.118;17.058;2022-10-17T09:19:14;18.48;;;15.18;;
23270;SDS011;11804;51.118;17.058;2022-10-17T09:21:51;16.17;;;14.50;;
23270;SDS011;11804;51.118;17.058;2022-10-17T09:27:14;20.77;;;15.00;;
23270;SDS011;11804;51.118;17.058;2022-10-17T09:29:45;19.23;;;13.98;;
23270;SDS011;11804;51.118;17.058;2022-10-17T09:32:18;16.55;;;14.47;;
23270;SDS011;11804;51.118;17.058;2022-10-17T09:34:46;16.82;;;14.40;;
23270;SDS011;11804;51.118;17.058;2022-10-17T09:37:15;19.40;;;14.45;;
23270;SDS011;11804;51.118;17.058;2022-10-17T09:40:10;20.60;;;14.18;;
23270;SDS011;11804;51.118;17.058;2022-10-17T09:42:16;19.30;;;13.53;;
23270;SDS011;11804;51.118;17.058;2022-10-17T09:50:13;17.82;;;14.33;;
23270;SDS011;11804;51.118;17.058;2022-10-17T09:53:02;15.70;;;14.07;;
23270;SDS011;11804;51.118;17.058;2022-10-17T09:58:10;15.90;;;14.23;;
23270;SDS011;11804;51.118;17.058;2022-10-17T10:00:41;18.00;;;13.75;;
23270;SDS011;11804;51.118;17.058;2022-10-17T10:05:59;20.72;;;14.43;;
23270;SDS011;11804;51.118;17.058;2022-10-17T10:08:29;16.70;;;14.07;;
23270;SDS011;11804;51.118;17.058;2022-10-17T10:10:59;16.48;;;13.75;;
23270;SDS011;11804;51.118;17.058;2022-10-17T10:13:30;16.02;;;13.22;;
23270;SDS011;11804;51.118;17.058;2022-10-17T10:16:16;17.20;;;14.30;;
23270;SDS011;11804;51.118;17.058;2022-10-17T10:18:45;14.70;;;12.90;;
23270;SDS011;11804;51.118;17.058;2022-10-17T10:21:21;15.50;;;12.75;;
23270;SDS011;11804;51.118;17.058;2022-10-17T10:26:47;15.93;;;13.03;;
23270;SDS011;11804;51.118;17.058;2022-10-17T10:29:34;17.45;;;12.65;;
23270;SDS011;11804;51.118;17.058;2022-10-17T10:32:23;14.35;;;12.43;;
23270;SDS011;11804;51.118;17.058;2022-10-17T10:34:53;16.85;;;12.50;;
23270;SDS011;11804;51.118;17.058;2022-10-17T10:37:24;18.82;;;12.73;;
23270;SDS011;11804;51.118;17.058;2022-10-17T10:39:55;18.20;;;12.50;;
23270;SDS011;11804;51.118;17.058;2022-10-17T10:42:28;18.50;;;13.08;;
23270;SDS011;11804;51.118;17.058;2022-10-17T10:47:53;16.75;;;12.47;;
23270;SDS011;11804;51.118;17.058;2022-10-17T10:50:29;20.37;;;12.90;;
23270;SDS011;11804;51.118;17.058;2022-10-17T10:55:53;21.48;;;12.30;;
23270;SDS011;11804;51.118;17.058;2022-10-17T10:58:29;18.07;;;12.07;;
23270;SDS011;11804;51.118;17.058;2022-10-17T11:00:53;19.35;;;11.90;;
23270;SDS011;11804;51.118;17.058;2022-10-17T11:03:25;17.60;;;11.70;;
23270;SDS011;11804;51.118;17.058;2022-10-17T11:06:12;16.70;;;12.10;;
23270;SDS011;11804;51.118;17.058;2022-10-17T11:08:44;18.17;;;12.30;;
23270;SDS011;11804;51.118;17.058;2022-10-17T11:11:19;17.27;;;12.70;;
23270;SDS011;11804;51.118;17.058;2022-10-17T11:14:00;15.45;;;11.93;;
23270;SDS011;11804;51.118;17.058;2022-10-17T11:16:46;18.60;;;11.78;;
23270;SDS011;11804;51.118;17.058;2022-10-17T11:22:22;18.10;;;11.53;;
23270;SDS011;11804;51.118;17.058;2022-10-17T11:24:52;16.07;;;12.30;;
23270;SDS011;11804;51.118;17.058;2022-10-17T11:27:28;13.88;;;11.65;;
23270;SDS011;11804;51.118;17.058;2022-10-17T11:29:56;18.62;;;11.73;;
23270;SDS011;11804;51.118;17.058;2022-10-17T11:32:47;20.27;;;11.05;;
23270;SDS011;11804;51.118;17.058;2022-10-17T11:37:47;17.25;;;12.30;;
23270;SDS011;11804;51.118;17.058;2022-10-17T11:40:33;15.65;;;11.68;;
23270;SDS011;11804;51.118;17.058;2022-10-17T11:43:09;16.82;;;11.60;;
23270;SDS011;11804;51.118;17.058;2022-10-17T11:45:44;16.82;;;11.97;;
23270;SDS011;11804;51.118;17.058;2022-10-17T11:48:16;18.55;;;11.57;;
23270;SDS011;11804;51.118;17.058;2022-10-17T11:51:09;15.75;;;10.70;;
23270;SDS011;11804;51.118;17.058;2022-10-17T11:54:25;14.15;;;10.70;;
23270;SDS011;11804;51.118;17.058;2022-10-17T11:56:16;15.93;;;10.93;;
23270;SDS011;11804;51.118;17.058;2022-10-17T11:58:50;15.45;;;11.08;;
23270;SDS011;11804;51.118;17.058;2022-10-17T12:01:36;16.42;;;11.15;;
23270;SDS011;11804;51.118;17.058;2022-10-17T12:12:26;16.23;;;10.60;;
23270;SDS011;11804;51.118;17.058;2022-10-17T12:17:45;13.18;;;10.13;;
23270;SDS011;11804;51.118;17.058;2022-10-17T12:22:53;15.72;;;10.70;;
23270;SDS011;11804;51.118;17.058;2022-10-17T12:25:26;16.42;;;10.53;;
23270;SDS011;11804;51.118;17.058;2022-10-17T12:28:02;15.58;;;10.98;;
23270;SDS011;11804;51.118;17.058;2022-10-17T12:30:34;14.35;;;10.72;;
23270;SDS011;11804;51.118;17.058;2022-10-17T12:35:45;14.83;;;10.82;;
23270;SDS011;11804;51.118;17.058;2022-10-17T12:40:49;13.43;;;10.60;;
23270;SDS011;11804;51.118;17.058;2022-10-17T12:45:58;11.00;;;9.33;;
23270;SDS011;11804;51.118;17.058;2022-10-17T12:51:12;14.85;;;10.18;;
23270;SDS011;11804;51.118;17.058;2022-10-17T12:56:37;13.10;;;9.90;;
23270;SDS011;11804;51.118;17.058;2022-10-17T13:01:44;18.12;;;10.00;;
23270;SDS011;11804;51.118;17.058;2022-10-17T13:04:13;12.25;;;9.78;;
23270;SDS011;11804;51.118;17.058;2022-10-17T13:06:50;14.00;;;10.15;;
23270;SDS011;11804;51.118;17.058;2022-10-17T13:09:37;11.93;;;10.40;;
23270;SDS011;11804;51.118;17.058;2022-10-17T13:11:55;14.20;;;10.48;;
23270;SDS011;11804;51.118;17.058;2022-10-17T13:14:25;15.58;;;10.63;;
23270;SDS011;11804;51.118;17.058;2022-10-17T13:16:55;20.97;;;11.33;;
23270;SDS011;11804;51.118;17.058;2022-10-17T13:19:25;15.95;;;10.88;;
23270;SDS011;11804;51.118;17.058;2022-10-17T13:21:58;15.78;;;10.85;;
23270;SDS011;11804;51.118;17.058;2022-10-17T13:24:29;12.78;;;11.28;;
23270;SDS011;11804;51.118;17.058;2022-10-17T13:26:59;12.60;;;10.90;;
23270;SDS011;11804;51.118;17.058;2022-10-17T13:29:27;13.62;;;10.75;;
23270;SDS011;11804;51.118;17.058;2022-10-17T13:32:00;19.85;;;12.03;;
23270;SDS011;11804;51.118;17.058;2022-10-17T13:34:30;19.50;;;15.30;;
23270;SDS011;11804;51.118;17.058;2022-10-17T13:37:00;19.35;;;12.35;;
23270;SDS011;11804;51.118;17.058;2022-10-17T13:39:33;12.80;;;10.82;;
23270;SDS011;11804;51.118;17.058;2022-10-17T13:42:42;13.13;;;9.75;;
23270;SDS011;11804;51.118;17.058;2022-10-17T13:44:48;14.43;;;10.82;;
23270;SDS011;11804;51.118;17.058;2022-10-17T13:47:22;16.77;;;10.45;;
23270;SDS011;11804;51.118;17.058;2022-10-17T13:49:55;14.87;;;10.65;;
23270;SDS011;11804;51.118;17.058;2022-10-17T13:52:26;16.93;;;11.25;;
23270;SDS011;11804;51.118;17.058;2022-10-17T13:54:55;13.65;;;10.82;;
23270;SDS011;11804;51.118;17.058;2022-10-17T13:57:37;18.37;;;10.95;;
23270;SDS011;11804;51.118;17.058;2022-10-17T14:00:06;14.63;;;11.08;;
23270;SDS011;11804;51.118;17.058;2022-10-17T14:02:40;15.70;;;10.98;;
23270;SDS011;11804;51.118;17.058;2022-10-17T14:10:31;14.95;;;10.00;;
23270;SDS011;11804;51.118;17.058;2022-10-17T14:13:02;13.68;;;9.63;;
23270;SDS011;11804;51.118;17.058;2022-10-17T14:15:33;13.98;;;9.00;;
23270;SDS011;11804;51.118;17.058;2022-10-17T14:18:03;17.37;;;9.93;;
23270;SDS011;11804;51.118;17.058;2022-10-17T14:20:34;10.53;;;8.15;;
23270;SDS011;11804;51.118;17.058;2022-10-17T14:23:03;15.05;;;9.10;;
23270;SDS011;11804;51.118;17.058;2022-10-17T14:25:35;11.30;;;8.88;;
23270;SDS011;11804;51.118;17.058;2022-10-17T14:28:12;12.47;;;8.80;;
23270;SDS011;11804;51.118;17.058;2022-10-17T14:30:39;10.63;;;8.75;;
23270;SDS011;11804;51.118;17.058;2022-10-17T14:35:55;12.47;;;9.28;;
23270;SDS011;11804;51.118;17.058;2022-10-17T14:38:24;13.80;;;9.08;;
23270;SDS011;11804;51.118;17.058;2022-10-17T14:43:29;13.53;;;9.15;;
23270;SDS011;11804;51.118;17.058;2022-10-17T14:45:58;13.22;;;9.15;;
23270;SDS011;11804;51.118;17.058;2022-10-17T14:48:27;12.60;;;8.73;;
23270;SDS011;11804;51.118;17.058;2022-10-17T14:51:15;11.90;;;8.68;;
23270;SDS011;11804;51.118;17.058;2022-10-17T14:54:33;11.18;;;9.08;;
23270;SDS011;11804;51.118;17.058;2022-10-17T14:56:38;14.80;;;9.48;;
23270;SDS011;11804;51.118;17.058;2022-10-17T14:59:10;17.35;;;8.93;;
23270;SDS011;11804;51.118;17.058;2022-10-17T15:01:37;11.93;;;8.43;;
23270;SDS011;11804;51.118;17.058;2022-10-17T15:04:04;13.35;;;8.70;;
23270;SDS011;11804;51.118;17.058;2022-10-17T15:06:33;14.30;;;9.15;;
23270;SDS011;11804;51.118;17.058;2022-10-17T15:09:01;13.05;;;8.93;;
23270;SDS011;11804;51.118;17.058;2022-10-17T15:11:30;12.40;;;8.48;;
23270;SDS011;11804;51.118;17.058;2022-10-17T15:13:57;13.30;;;9.30;;
23270;SDS011;11804;51.118;17.058;2022-10-17T15:16:26;13.38;;;9.53;;
23270;SDS011;11804;51.118;17.058;2022-10-17T15:18:59;13.43;;;9.13;;
23270;SDS011;11804;51.118;17.058;2022-10-17T15:21:27;13.70;;;8.90;;
23270;SDS011;11804;51.118;17.058;2022-10-17T15:23:55;12.65;;;9.30;;
23270;SDS011;11804;51.118;17.058;2022-10-17T15:26:25;13.90;;;8.70;;
23270;SDS011;11804;51.118;17.058;2022-10-17T15:28:57;21.62;;;17.37;;
23270;SDS011;11804;51.118;17.058;2022-10-17T15:31:25;34.88;;;26.33;;
23270;SDS011;11804;51.118;17.058;2022-10-17T15:33:56;45.12;;;35.25;;
23270;SDS011;11804;51.118;17.058;2022-10-17T15:36:24;40.43;;;34.53;;
23270;SDS011;11804;51.118;17.058;2022-10-17T15:38:58;13.60;;;9.18;;
23270;SDS011;11804;51.118;17.058;2022-10-17T15:41:28;15.83;;;8.80;;
23270;SDS011;11804;51.118;17.058;2022-10-17T15:43:56;14.65;;;10.82;;
23270;SDS011;11804;51.118;17.058;2022-10-17T15:46:26;18.42;;;10.40;;
23270;SDS011;11804;51.118;17.058;2022-10-17T15:48:56;18.05;;;10.60;;
23270;SDS011;11804;51.118;17.058;2022-10-17T15:51:25;13.18;;;9.58;;
23270;SDS011;11804;51.118;17.058;2022-10-17T15:53:52;13.13;;;8.63;;
23270;SDS011;11804;51.118;17.058;2022-10-17T15:56:24;10.53;;;8.25;;
23270;SDS011;11804;51.118;17.058;2022-10-17T15:58:54;11.60;;;9.00;;
23270;SDS011;11804;51.118;17.058;2022-10-17T16:01:28;12.80;;;8.35;;
23270;SDS011;11804;51.118;17.058;2022-10-17T16:03:57;14.43;;;8.33;;
23270;SDS011;11804;51.118;17.058;2022-10-17T16:06:24;15.30;;;8.25;;
23270;SDS011;11804;51.118;17.058;2022-10-17T16:08:53;15.13;;;8.60;;
23270;SDS011;11804;51.118;17.058;2022-10-17T16:11:32;9.70;;;7.20;;
23270;SDS011;11804;51.118;17.058;2022-10-17T16:14:11;13.45;;;7.03;;
23270;SDS011;11804;51.118;17.058;2022-10-17T16:16:40;12.55;;;7.37;;
23270;SDS011;11804;51.118;17.058;2022-10-17T16:19:08;10.10;;;7.20;;
23270;SDS011;11804;51.118;17.058;2022-10-17T16:21:37;11.70;;;7.25;;
23270;SDS011;11804;51.118;17.058;2022-10-17T16:24:08;11.05;;;7.58;;
23270;SDS011;11804;51.118;17.058;2022-10-17T16:26:37;11.90;;;7.05;;
23270;SDS011;11804;51.118;17.058;2022-10-17T16:29:06;12.75;;;7.42;;
23270;SDS011;11804;51.118;17.058;2022-10-17T16:31:35;12.20;;;7.67;;